createdAt,value
2023-05-25T00:01:35.678Z,100258.00
2023-05-25T00:04:05.403Z,100267.00
2023-05-25T00:06:37.411Z,100269.00
2023-05-25T00:09:05.377Z,100267.00
2023-05-25T00:11:33.335Z,100272.00
2023-05-25T00:14:01.306Z,100279.00
2023-05-25T00:16:29.268Z,100279.00
2023-05-25T00:18:57.920Z,100284.00
2023-05-25T00:21:27.471Z,100278.00
2023-05-25T00:23:55.397Z,100274.00
2023-05-25T00:26:23.388Z,100278.00
2023-05-25T00:28:51.307Z,100278.00
2023-05-25T00:31:19.351Z,100281.00
2023-05-25T00:33:47.510Z,100286.00
2023-05-25T00:36:15.489Z,100279.00
2023-05-25T00:38:45.949Z,100281.00
2023-05-25T00:41:14.331Z,100282.00
2023-05-25T00:43:42.278Z,100286.00
2023-05-25T00:46:11.514Z,100276.00
2023-05-25T00:48:40.857Z,100277.00
2023-05-25T00:51:08.880Z,100276.00
2023-05-25T00:53:38.053Z,100264.00
2023-05-25T00:56:16.824Z,100270.00
2023-05-25T00:58:50.902Z,100271.00
2023-05-25T01:01:22.017Z,100270.00
2023-05-25T01:03:53.715Z,100272.00
2023-05-25T01:06:23.668Z,100275.00
2023-05-25T01:08:56.887Z,100279.00
2023-05-25T01:11:34.862Z,100280.00
2023-05-25T01:14:03.667Z,100281.00
2023-05-25T01:16:32.253Z,100280.00
2023-05-25T01:19:02.872Z,100273.00
2023-05-25T01:21:42.237Z,100274.00
2023-05-25T01:24:22.558Z,100286.00
2023-05-25T01:27:00.104Z,100270.00
2023-05-25T01:29:31.039Z,100280.00
2023-05-25T01:32:00.226Z,100282.00
2023-05-25T01:34:31.130Z,100290.00
2023-05-25T01:37:03.094Z,100284.00
2023-05-25T01:39:31.323Z,100288.00
2023-05-25T01:41:59.291Z,100285.00
2023-05-25T01:44:27.550Z,100285.00
2023-05-25T01:47:06.624Z,100281.00
2023-05-25T01:49:44.864Z,100273.00
2023-05-25T01:52:23.607Z,100281.00
2023-05-25T01:54:58.301Z,100279.00
2023-05-25T01:57:28.139Z,100277.00
2023-05-25T02:00:00.530Z,100276.00
2023-05-25T02:02:30.388Z,100282.00
2023-05-25T02:04:58.899Z,100272.00
2023-05-25T02:07:28.271Z,100270.00
2023-05-25T02:09:56.501Z,100284.00
2023-05-25T02:12:24.611Z,100292.00
2023-05-25T02:14:52.703Z,100288.00
2023-05-25T02:17:20.897Z,100288.00
2023-05-25T02:19:53.010Z,100283.00
2023-05-25T02:22:21.836Z,100286.00
2023-05-25T02:24:51.247Z,100292.00
2023-05-25T02:27:19.185Z,100293.00
2023-05-25T02:29:47.107Z,100291.00
2023-05-25T02:32:15.146Z,100298.00
2023-05-25T02:34:43.402Z,100279.00
2023-05-25T02:37:11.377Z,100292.00
2023-05-25T02:39:39.344Z,100292.00
2023-05-25T02:42:08.789Z,100295.00
2023-05-25T02:44:36.793Z,100301.00
2023-05-25T02:47:05.181Z,100297.00
2023-05-25T02:49:34.368Z,100301.00
2023-05-25T02:52:02.387Z,100307.00
2023-05-25T02:54:30.421Z,100302.00
2023-05-25T02:56:59.250Z,100307.00
2023-05-25T02:59:29.937Z,100303.00
2023-05-25T03:02:00.489Z,100303.00
2023-05-25T03:04:31.112Z,100296.00
2023-05-25T03:06:59.584Z,100306.00
2023-05-25T03:09:27.812Z,100312.00
2023-05-25T03:11:55.956Z,100311.00
2023-05-25T03:14:23.920Z,100308.00
2023-05-25T03:17:03.801Z,100310.00
2023-05-25T03:19:32.335Z,100318.00
2023-05-25T03:22:00.822Z,100316.00
2023-05-25T03:24:28.805Z,100313.00
2023-05-25T03:27:00.145Z,100317.00
2023-05-25T03:29:28.095Z,100316.00
2023-05-25T03:31:56.480Z,100331.00
2023-05-25T03:34:30.514Z,100331.00
2023-05-25T03:36:58.466Z,100323.00
2023-05-25T03:39:26.821Z,100326.00
2023-05-25T03:41:56.053Z,100331.00
2023-05-25T03:44:24.980Z,100332.00
2023-05-25T03:46:53.195Z,100333.00
2023-05-25T03:49:21.228Z,100337.00
2023-05-25T03:51:50.568Z,100335.00
2023-05-25T03:54:18.476Z,100346.00
2023-05-25T03:56:46.489Z,100342.00
2023-05-25T03:59:14.486Z,100335.00
2023-05-25T04:01:42.535Z,100346.00
2023-05-25T04:04:10.690Z,100352.00
2023-05-25T04:06:39.225Z,100345.00
2023-05-25T04:09:10.058Z,100348.00
2023-05-25T04:11:38.218Z,100343.00
2023-05-25T04:14:06.138Z,100348.00
2023-05-25T04:16:37.468Z,100350.00
2023-05-25T04:19:06.103Z,100350.00
2023-05-25T04:21:34.158Z,100345.00
2023-05-25T04:24:02.657Z,100347.00
2023-05-25T04:26:32.092Z,100330.00
2023-05-25T04:29:02.782Z,100339.00
2023-05-25T04:31:56.680Z,100344.00
2023-05-25T04:34:46.809Z,100335.00
2023-05-25T04:37:21.501Z,100349.00
2023-05-25T04:39:50.068Z,100355.00
2023-05-25T04:42:23.879Z,100360.00
2023-05-25T04:44:55.641Z,100359.00
2023-05-25T04:47:25.963Z,100361.00
2023-05-25T04:49:54.512Z,100361.00
2023-05-25T04:52:24.221Z,100356.00
2023-05-25T04:54:52.396Z,100357.00
2023-05-25T04:57:21.875Z,100355.00
2023-05-25T04:59:50.674Z,100363.00
2023-05-25T05:02:19.396Z,100359.00
2023-05-25T05:04:47.384Z,100358.00
2023-05-25T05:07:15.500Z,100351.00
2023-05-25T05:09:44.088Z,100345.00
2023-05-25T05:12:12.339Z,100344.00
2023-05-25T05:14:47.365Z,100353.00
2023-05-25T05:17:15.437Z,100359.00
2023-05-25T05:19:43.811Z,100352.00
2023-05-25T05:22:15.938Z,100348.00
2023-05-25T05:24:45.196Z,100343.00
2023-05-25T05:27:18.259Z,100348.00
2023-05-25T05:29:55.217Z,100365.00
2023-05-25T05:32:24.047Z,100362.00
2023-05-25T05:34:52.091Z,100353.00
2023-05-25T05:37:39.469Z,100356.00
2023-05-25T05:40:10.763Z,100354.00
2023-05-25T05:42:40.330Z,100364.00
2023-05-25T05:45:11.898Z,100359.00
2023-05-25T05:47:39.892Z,100368.00
2023-05-25T05:50:09.766Z,100363.00
2023-05-25T05:52:39.264Z,100365.00
2023-05-25T05:55:07.992Z,100370.00
2023-05-25T05:57:37.786Z,100361.00
2023-05-25T06:00:07.679Z,100374.00
2023-05-25T06:02:44.547Z,100367.00
2023-05-25T06:05:19.115Z,100371.00
2023-05-25T06:07:47.499Z,100373.00
2023-05-25T06:10:16.243Z,100380.00
2023-05-25T06:12:45.456Z,100383.00
2023-05-25T06:15:13.545Z,100378.00
2023-05-25T06:17:43.298Z,100380.00
2023-05-25T06:20:15.009Z,100384.00
2023-05-25T06:22:43.347Z,100384.00
2023-05-25T06:25:12.105Z,100375.00
2023-05-25T06:27:40.106Z,100386.00
2023-05-25T06:30:09.923Z,100383.00
2023-05-25T06:32:38.380Z,100387.00
2023-05-25T06:35:08.039Z,100380.00
2023-05-25T06:37:37.977Z,100384.00
2023-05-25T06:40:09.490Z,100386.00
2023-05-25T06:42:38.177Z,100386.00
2023-05-25T06:45:08.205Z,100389.00
2023-05-25T06:47:36.684Z,100384.00
2023-05-25T06:50:06.387Z,100387.00
2023-05-25T06:52:34.372Z,100392.00
2023-05-25T06:55:04.556Z,100390.00
2023-05-25T06:57:32.562Z,100397.00
2023-05-25T07:00:00.497Z,100390.00
2023-05-25T07:02:28.502Z,100391.00
2023-05-25T07:04:56.484Z,100385.00
2023-05-25T07:07:24.429Z,100383.00
2023-05-25T07:09:52.333Z,100382.00
2023-05-25T07:12:21.622Z,100386.00
2023-05-25T07:14:49.557Z,100384.00
2023-05-25T07:17:18.029Z,100388.00
2023-05-25T07:19:46.112Z,100382.00
2023-05-25T07:22:15.740Z,100385.00
2023-05-25T07:24:43.744Z,100384.00
2023-05-25T07:27:11.728Z,100384.00
2023-05-25T07:29:41.344Z,100377.00
2023-05-25T07:32:09.528Z,100383.00
2023-05-25T07:34:37.802Z,100380.00
2023-05-25T07:37:06.448Z,100382.00
2023-05-25T07:39:34.381Z,100389.00
2023-05-25T07:42:02.663Z,100383.00
2023-05-25T07:44:30.723Z,100385.00
2023-05-25T07:47:00.053Z,100390.00
2023-05-25T07:49:28.029Z,100390.00
2023-05-25T07:51:55.968Z,100393.00
2023-05-25T07:54:23.903Z,100393.00
2023-05-25T07:56:51.943Z,100389.00
2023-05-25T07:59:19.924Z,100403.00
2023-05-25T08:01:47.958Z,100396.00
2023-05-25T08:04:17.423Z,100386.00
2023-05-25T08:06:45.663Z,100386.00
2023-05-25T08:09:14.249Z,100390.00
2023-05-25T08:11:44.378Z,100386.00
2023-05-25T08:14:12.493Z,100396.00
2023-05-25T08:16:40.899Z,100396.00
2023-05-25T08:19:08.919Z,100390.00
2023-05-25T08:21:39.648Z,100397.00
2023-05-25T08:24:08.427Z,100403.00
2023-05-25T08:26:52.939Z,100398.00
2023-05-25T08:29:22.254Z,100397.00
2023-05-25T08:31:51.334Z,100400.00
2023-05-25T08:34:19.324Z,100407.00
2023-05-25T08:36:48.650Z,100395.00
2023-05-25T08:39:16.751Z,100398.00
2023-05-25T08:41:46.561Z,100405.00
2023-05-25T08:44:15.407Z,100410.00
2023-05-25T08:46:43.851Z,100393.00
2023-05-25T08:49:14.072Z,100409.00
2023-05-25T08:51:49.625Z,100414.00
2023-05-25T08:54:29.759Z,100409.00
2023-05-25T08:57:09.179Z,100408.00
2023-05-25T08:59:45.421Z,100411.00
2023-05-25T09:02:24.838Z,100416.00
2023-05-25T09:04:53.328Z,100400.00
2023-05-25T09:07:23.247Z,100413.00
2023-05-25T09:09:52.462Z,100418.00
2023-05-25T09:12:23.004Z,100420.00
2023-05-25T09:14:51.360Z,100415.00
2023-05-25T09:17:20.027Z,100423.00
2023-05-25T09:19:48.833Z,100427.00
2023-05-25T09:22:17.224Z,100426.00
2023-05-25T09:24:46.843Z,100415.00
2023-05-25T09:27:19.285Z,100418.00
2023-05-25T09:29:49.639Z,100421.00
2023-05-25T09:32:18.408Z,100425.00
2023-05-25T09:34:47.154Z,100432.00
2023-05-25T09:37:19.386Z,100421.00
2023-05-25T09:39:49.359Z,100428.00
2023-05-25T09:42:18.213Z,100424.00
2023-05-25T09:44:46.524Z,100424.00
2023-05-25T09:47:16.852Z,100424.00
2023-05-25T09:49:47.481Z,100423.00
2023-05-25T09:52:16.937Z,100430.00
2023-05-25T09:54:48.409Z,100437.00
2023-05-25T09:57:17.229Z,100435.00
2023-05-25T09:59:45.827Z,100432.00
2023-05-25T10:02:15.740Z,100440.00
2023-05-25T10:04:43.804Z,100434.00
2023-05-25T10:07:12.723Z,100436.00
2023-05-25T10:09:43.147Z,100427.00
2023-05-25T10:12:18.275Z,100437.00
2023-05-25T10:14:51.102Z,100430.00
2023-05-25T10:17:24.638Z,100436.00
2023-05-25T10:19:58.718Z,100425.00
2023-05-25T10:22:34.124Z,100434.00
2023-05-25T10:25:11.180Z,100421.00
2023-05-25T10:27:45.521Z,100434.00
2023-05-25T10:30:16.084Z,100437.00
2023-05-25T10:32:47.859Z,100423.00
2023-05-25T10:35:16.258Z,100418.00
2023-05-25T10:37:46.977Z,100427.00
2023-05-25T10:40:16.153Z,100425.00
2023-05-25T10:42:46.926Z,100425.00
2023-05-25T10:45:16.710Z,100415.00
2023-05-25T10:47:46.356Z,100426.00
2023-05-25T10:50:22.983Z,100418.00
2023-05-25T10:53:03.879Z,100420.00
2023-05-25T10:55:44.439Z,100412.00
2023-05-25T10:58:17.751Z,100411.00
2023-05-25T11:01:00.400Z,100418.00
2023-05-25T11:03:54.629Z,100417.00
2023-05-25T11:06:24.641Z,100422.00
2023-05-25T11:08:56.618Z,100416.00
2023-05-25T11:12:04.348Z,100411.00
2023-05-25T11:14:37.826Z,100411.00
2023-05-25T11:17:10.465Z,100409.00
2023-05-25T11:19:44.448Z,100403.00
2023-05-25T11:22:17.726Z,100395.00
2023-05-25T11:24:46.159Z,100401.00
2023-05-25T11:27:14.770Z,100398.00
2023-05-25T11:29:44.726Z,100395.00
2023-05-25T11:32:15.175Z,100384.00
2023-05-25T11:34:46.805Z,100382.00
2023-05-25T11:37:21.163Z,100398.00
2023-05-25T11:39:50.033Z,100390.00
2023-05-25T11:42:20.692Z,100382.00
2023-05-25T11:44:50.043Z,100391.00
2023-05-25T11:47:23.040Z,100387.00
2023-05-25T11:49:51.523Z,100393.00
2023-05-25T11:52:22.170Z,100398.00
2023-05-25T11:54:50.414Z,100390.00
2023-05-25T11:57:20.789Z,100393.00
2023-05-25T11:59:51.506Z,100376.00
2023-05-25T12:02:21.345Z,100390.00
2023-05-25T12:05:01.437Z,100385.00
2023-05-25T12:07:31.860Z,100396.00
2023-05-25T12:10:07.893Z,100386.00
2023-05-25T12:12:42.059Z,100387.00
2023-05-25T12:15:14.616Z,100386.00
2023-05-25T12:17:44.941Z,100382.00
2023-05-25T12:20:16.863Z,100384.00
2023-05-25T12:22:47.638Z,100370.00
2023-05-25T12:25:20.782Z,100371.00
2023-05-25T12:27:48.995Z,100371.00
2023-05-25T12:30:18.401Z,100364.00
2023-05-25T12:33:04.961Z,100355.00
2023-05-25T12:35:47.541Z,100361.00
2023-05-25T12:38:18.342Z,100358.00
2023-05-25T12:40:46.631Z,100357.00
2023-05-25T12:43:17.503Z,100348.00
2023-05-25T12:45:47.240Z,100358.00
2023-05-25T12:48:15.211Z,100355.00
2023-05-25T12:50:59.023Z,100358.00
2023-05-25T12:53:27.300Z,100353.00
2023-05-25T12:56:03.415Z,100355.00
2023-05-25T12:58:31.505Z,100355.00
2023-05-25T13:01:01.007Z,100351.00
2023-05-25T13:03:28.961Z,100350.00
2023-05-25T13:06:02.789Z,100346.00
2023-05-25T13:08:30.822Z,100354.00
2023-05-25T13:10:58.885Z,100355.00
2023-05-25T13:13:27.010Z,100346.00
2023-05-25T13:15:55.028Z,100344.00
2023-05-25T13:18:24.379Z,100350.00
2023-05-25T13:20:56.015Z,100349.00
2023-05-25T13:23:24.950Z,100352.00
2023-05-25T13:25:52.895Z,100350.00
2023-05-25T13:28:20.913Z,100350.00
2023-05-25T13:30:48.997Z,100343.00
2023-05-25T13:33:16.984Z,100343.00
2023-05-25T13:35:58.221Z,100346.00
2023-05-25T13:38:27.215Z,100335.00
2023-05-25T13:40:55.169Z,100345.00
2023-05-25T13:43:23.216Z,100335.00
2023-05-25T13:45:51.183Z,100326.00
2023-05-25T13:48:19.286Z,100326.00
2023-05-25T13:50:49.384Z,100331.00
2023-05-25T13:53:17.760Z,100324.00
2023-05-25T13:55:45.834Z,100326.00
2023-05-25T13:58:13.823Z,100307.00
2023-05-25T14:00:42.004Z,100317.00
2023-05-25T14:03:10.219Z,100315.00
2023-05-25T14:05:38.262Z,100315.00
2023-05-25T14:08:07.818Z,100330.00
2023-05-25T14:10:35.900Z,100320.00
2023-05-25T14:13:03.884Z,100318.00
2023-05-25T14:15:31.887Z,100314.00
2023-05-25T14:17:59.838Z,100307.00
2023-05-25T14:20:28.034Z,100301.00
2023-05-25T14:22:56.024Z,100304.00
2023-05-25T14:25:25.310Z,100299.00
2023-05-25T14:27:53.290Z,100307.00
2023-05-25T14:30:21.648Z,100301.00
2023-05-25T14:32:49.648Z,100297.00
2023-05-25T14:35:17.650Z,100301.00
2023-05-25T14:37:45.777Z,100298.00
2023-05-25T14:40:14.473Z,100296.00
2023-05-25T14:42:43.872Z,100297.00
2023-05-25T14:45:14.525Z,100308.00
2023-05-25T14:47:43.945Z,100304.00
2023-05-25T14:50:11.985Z,100316.00
2023-05-25T14:52:39.973Z,100303.00
2023-05-25T14:55:09.564Z,100315.00
2023-05-25T14:57:37.563Z,100311.00
2023-05-25T15:00:08.872Z,100305.00
2023-05-25T15:02:36.945Z,100313.00
2023-05-25T15:05:06.100Z,100303.00
2023-05-25T15:07:34.087Z,100301.00
2023-05-25T15:10:02.340Z,100304.00
2023-05-25T15:12:30.315Z,100313.00
2023-05-25T15:14:58.239Z,100304.00
2023-05-25T15:17:28.051Z,100300.00
2023-05-25T15:19:56.070Z,100311.00
2023-05-25T15:22:23.992Z,100308.00
2023-05-25T15:24:51.996Z,100303.00
2023-05-25T15:27:19.991Z,100303.00
2023-05-25T15:29:47.988Z,100299.00
2023-05-25T15:32:17.829Z,100304.00
2023-05-25T15:34:47.425Z,100304.00
2023-05-25T15:37:15.439Z,100294.00
2023-05-25T15:39:43.779Z,100301.00
2023-05-25T15:42:11.856Z,100296.00
2023-05-25T15:44:39.789Z,100304.00
2023-05-25T15:47:07.992Z,100289.00
2023-05-25T15:49:36.955Z,100296.00
2023-05-25T15:52:07.146Z,100289.00
2023-05-25T15:54:35.129Z,100287.00
2023-05-25T15:57:03.187Z,100286.00
2023-05-25T15:59:31.198Z,100288.00
2023-05-25T16:01:59.152Z,100282.00
2023-05-25T16:04:27.217Z,100282.00
2023-05-25T16:06:55.189Z,100284.00
2023-05-25T16:09:24.503Z,100281.00
2023-05-25T16:11:52.455Z,100275.00
2023-05-25T16:14:20.404Z,100277.00
2023-05-25T16:16:48.439Z,100269.00
2023-05-25T16:19:16.548Z,100275.00
2023-05-25T16:21:44.618Z,100278.00
2023-05-25T16:24:12.701Z,100274.00
2023-05-25T16:26:42.313Z,100278.00
2023-05-25T16:29:10.572Z,100263.00
2023-05-25T16:31:38.639Z,100276.00
2023-05-25T16:34:06.987Z,100268.00
2023-05-25T16:36:34.890Z,100263.00
2023-05-25T16:39:02.874Z,100275.00
2023-05-25T16:41:30.868Z,100270.00
2023-05-25T16:44:00.544Z,100270.00
2023-05-25T16:46:28.514Z,100275.00
2023-05-25T16:48:56.715Z,100271.00
2023-05-25T16:51:24.719Z,100268.00
2023-05-25T16:53:53.794Z,100266.00
2023-05-25T16:56:24.379Z,100261.00
2023-05-25T16:58:52.458Z,100266.00
2023-05-25T17:01:21.999Z,100257.00
2023-05-25T17:03:50.168Z,100260.00
2023-05-25T17:06:18.248Z,100256.00
2023-05-25T17:08:46.280Z,100259.00
2023-05-25T17:11:14.353Z,100257.00
2023-05-25T17:13:42.319Z,100260.00
2023-05-25T17:16:10.401Z,100264.00
2023-05-25T17:18:41.660Z,100258.00
2023-05-25T17:21:09.643Z,100249.00
2023-05-25T17:23:37.588Z,100258.00
2023-05-25T17:26:06.061Z,100261.00
2023-05-25T17:28:33.994Z,100257.00
2023-05-25T17:31:02.441Z,100258.00
2023-05-25T17:33:30.410Z,100259.00
2023-05-25T17:36:00.064Z,100264.00
2023-05-25T17:38:28.340Z,100274.00
2023-05-25T17:40:56.296Z,100280.00
2023-05-25T17:43:24.274Z,100269.00
2023-05-25T17:45:52.773Z,100267.00
2023-05-25T17:48:20.878Z,100269.00
2023-05-25T17:50:49.001Z,100271.00
2023-05-25T17:53:18.248Z,100274.00
2023-05-25T17:55:46.440Z,100277.00
2023-05-25T17:58:14.561Z,100280.00
2023-05-25T18:00:42.492Z,100276.00
2023-05-25T18:03:10.654Z,100269.00
2023-05-25T18:05:38.625Z,100278.00
2023-05-25T18:08:06.558Z,100275.00
2023-05-25T18:10:35.812Z,100276.00
2023-05-25T18:13:03.823Z,100286.00
2023-05-25T18:15:31.796Z,100285.00
2023-05-25T18:18:00.704Z,100272.00
2023-05-25T18:20:28.747Z,100284.00
2023-05-25T18:22:56.841Z,100285.00
2023-05-25T18:25:24.883Z,100286.00
2023-05-25T18:27:54.167Z,100289.00
2023-05-25T18:30:22.140Z,100285.00
2023-05-25T18:32:50.131Z,100288.00
2023-05-25T18:35:18.174Z,100293.00
2023-05-25T18:37:46.185Z,100288.00
2023-05-25T18:40:14.447Z,100298.00
2023-05-25T18:42:42.409Z,100300.00
2023-05-25T18:45:11.892Z,100294.00
2023-05-25T18:47:40.284Z,100298.00
2023-05-25T18:50:08.959Z,100289.00
2023-05-25T18:52:36.915Z,100294.00
2023-05-25T18:55:06.833Z,100287.00
2023-05-25T18:57:35.001Z,100294.00
2023-05-25T19:00:03.891Z,100303.00
2023-05-25T19:02:33.496Z,100301.00
2023-05-25T19:05:01.474Z,100305.00
2023-05-25T19:07:29.449Z,100313.00
2023-05-25T19:09:57.387Z,100307.00
2023-05-25T19:12:25.403Z,100324.00
2023-05-25T19:14:53.372Z,100316.00
2023-05-25T19:17:21.549Z,100318.00
2023-05-25T19:19:51.295Z,100331.00
2023-05-25T19:22:19.397Z,100322.00
2023-05-25T19:24:48.715Z,100335.00
2023-05-25T19:27:19.861Z,100331.00
2023-05-25T19:29:47.996Z,100341.00
2023-05-25T19:32:17.440Z,100340.00
2023-05-25T19:34:45.625Z,100347.00
2023-05-25T19:37:15.107Z,100357.00
2023-05-25T19:39:43.078Z,100350.00
2023-05-25T19:42:11.304Z,100351.00
2023-05-25T19:44:40.547Z,100354.00
2023-05-25T19:47:08.834Z,100363.00
2023-05-25T19:49:36.755Z,100361.00
2023-05-25T19:52:04.920Z,100364.00
2023-05-25T19:54:35.436Z,100356.00
2023-05-25T19:57:03.879Z,100355.00
2023-05-25T19:59:31.861Z,100358.00
2023-05-25T20:02:00.084Z,100364.00
2023-05-25T20:04:28.141Z,100363.00
2023-05-25T20:06:56.441Z,100361.00
2023-05-25T20:09:30.095Z,100369.00
2023-05-25T20:12:02.342Z,100375.00
2023-05-25T20:14:31.137Z,100376.00
2023-05-25T20:16:59.111Z,100388.00
2023-05-25T20:19:27.057Z,100387.00
2023-05-25T20:21:55.341Z,100386.00
2023-05-25T20:24:23.293Z,100383.00
2023-05-25T20:26:56.362Z,100374.00
2023-05-25T20:29:25.727Z,100385.00
2023-05-25T20:31:54.393Z,100383.00
2023-05-25T20:34:22.388Z,100386.00
2023-05-25T20:36:51.102Z,100381.00
2023-05-25T20:39:19.440Z,100385.00
2023-05-25T20:41:47.496Z,100390.00
2023-05-25T20:44:16.141Z,100384.00
2023-05-25T20:46:45.438Z,100386.00
2023-05-25T20:49:13.440Z,100390.00
2023-05-25T20:51:44.369Z,100396.00
2023-05-25T20:54:12.342Z,100389.00
2023-05-25T20:56:40.432Z,100399.00
2023-05-25T20:59:08.405Z,100407.00
2023-05-25T21:01:36.423Z,100408.00
2023-05-25T21:04:06.025Z,100414.00
2023-05-25T21:06:34.083Z,100418.00
2023-05-25T21:09:02.105Z,100422.00
2023-05-25T21:11:30.179Z,100427.00
2023-05-25T21:13:58.168Z,100422.00
2023-05-25T21:16:26.822Z,100420.00
2023-05-25T21:18:54.868Z,100423.00
2023-05-25T21:21:24.378Z,100417.00
2023-05-25T21:23:52.319Z,100416.00
2023-05-25T21:26:21.315Z,100414.00
2023-05-25T21:28:49.375Z,100429.00
2023-05-25T21:31:17.444Z,100425.00
2023-05-25T21:33:47.240Z,100427.00
2023-05-25T21:36:15.663Z,100426.00
2023-05-25T21:38:44.976Z,100438.00
2023-05-25T21:41:13.000Z,100431.00
2023-05-25T21:43:41.027Z,100434.00
2023-05-25T21:46:08.992Z,100431.00
2023-05-25T21:48:36.932Z,100437.00
2023-05-25T21:51:05.491Z,100442.00
2023-05-25T21:53:33.601Z,100436.00
2023-05-25T21:56:02.940Z,100441.00
2023-05-25T21:58:30.950Z,100443.00
2023-05-25T22:00:59.111Z,100446.00
2023-05-25T22:03:27.074Z,100443.00
2023-05-25T22:05:55.076Z,100440.00
2023-05-25T22:08:22.977Z,100447.00
2023-05-25T22:10:50.971Z,100451.00
2023-05-25T22:13:20.245Z,100448.00
2023-05-25T22:15:48.211Z,100446.00
2023-05-25T22:18:16.322Z,100443.00
2023-05-25T22:20:44.323Z,100446.00
2023-05-25T22:23:13.364Z,100451.00
2023-05-25T22:25:41.429Z,100453.00
2023-05-25T22:28:09.530Z,100454.00
2023-05-25T22:30:38.838Z,100450.00
2023-05-25T22:33:07.349Z,100456.00
2023-05-25T22:35:35.322Z,100447.00
2023-05-25T22:38:03.227Z,100448.00
2023-05-25T22:40:31.175Z,100452.00
2023-05-25T22:42:59.119Z,100449.00
2023-05-25T22:45:27.073Z,100452.00
2023-05-25T22:47:56.365Z,100448.00
2023-05-25T22:50:24.303Z,100450.00
2023-05-25T22:52:52.241Z,100454.00
2023-05-25T22:55:20.248Z,100449.00
2023-05-25T22:57:48.392Z,100458.00
2023-05-25T23:00:16.579Z,100458.00
2023-05-25T23:02:44.692Z,100457.00
2023-05-25T23:05:13.998Z,100452.00
2023-05-25T23:07:43.613Z,100455.00
2023-05-25T23:10:12.216Z,100454.00
2023-05-25T23:12:40.298Z,100450.00
2023-05-25T23:15:10.961Z,100448.00
2023-05-25T23:17:38.926Z,100449.00
2023-05-25T23:20:09.327Z,100454.00
2023-05-25T23:22:38.798Z,100452.00
2023-05-25T23:25:08.439Z,100445.00
2023-05-25T23:27:36.391Z,100448.00
2023-05-25T23:30:05.013Z,100442.00
2023-05-25T23:32:33.012Z,100447.00
2023-05-25T23:35:01.350Z,100449.00
2023-05-25T23:37:29.461Z,100447.00
2023-05-25T23:39:58.716Z,100445.00
2023-05-25T23:42:29.368Z,100451.00
2023-05-25T23:44:57.284Z,100448.00
2023-05-25T23:47:25.204Z,100449.00
2023-05-25T23:49:53.149Z,100455.00
2023-05-25T23:52:21.071Z,100453.00
2023-05-25T23:54:49.076Z,100455.00
2023-05-25T23:57:18.482Z,100459.00
2023-05-25T23:59:46.382Z,100454.00
